Time;durP1;ratioP1;P1;durP2;ratioP2;P2;SDS_P1;SDS_P2;PMS_P1;PMS_P2;Temp;Humidity;BMP_temperature;BMP_pressure;BME280_temperature;BME280_humidity;BME280_pressure;Samples;Min_cycle;Max_cycle;Signal;HPM_P1;HPM_P2
2021/08/01 00:01:35;;;;;;;9.38;8.52;;;15.50;89.20;;;;;;4997375;28;20120;-80
2021/08/01 00:04:00;;;;;;;5.95;4.60;;;15.50;88.80;;;;;;4989495;28;20025;-80
2021/08/01 00:06:26;;;;;;;4.63;4.10;;;15.40;88.90;;;;;;5007718;28;20022;-80
2021/08/01 00:08:52;;;;;;;9.52;8.35;;;15.50;90.20;;;;;;5008054;28;20040;-80
2021/08/01 00:11:17;;;;;;;10.23;9.18;;;15.90;91.80;;;;;;4998996;28;20032;-79
2021/08/01 00:13:43;;;;;;;5.63;5.13;;;15.50;89.70;;;;;;5013391;28;20116;-79
2021/08/01 00:16:08;;;;;;;4.68;4.10;;;15.50;91.00;;;;;;5012250;28;20248;-80
2021/08/01 00:18:34;;;;;;;3.50;2.92;;;15.50;90.20;;;;;;5000763;28;20385;-79
2021/08/01 00:20:59;;;;;;;10.13;8.02;;;15.70;90.40;;;;;;4996647;28;20045;-79
2021/08/01 00:23:25;;;;;;;4.88;4.38;;;15.80;90.60;;;;;;4996846;28;20057;-79
2021/08/01 00:25:51;;;;;;;8.77;6.68;;;15.60;90.90;;;;;;5009563;28;20135;-80
2021/08/01 00:28:16;;;;;;;4.28;3.78;;;15.70;92.00;;;;;;5010045;28;20089;-80
2021/08/01 00:30:42;;;;;;;7.15;4.53;;;15.50;91.10;;;;;;4996445;28;20022;-79
2021/08/01 00:33:07;;;;;;;11.20;9.45;;;15.70;90.90;;;;;;4998273;28;20110;-80
2021/08/01 00:35:33;;;;;;;5.45;4.90;;;15.50;91.70;;;;;;5000107;28;20033;-79
2021/08/01 00:37:59;;;;;;;8.85;7.47;;;15.50;91.10;;;;;;4994349;28;20590;-79
2021/08/01 00:40:24;;;;;;;9.45;7.15;;;15.40;91.00;;;;;;5002659;28;20037;-80
2021/08/01 00:42:50;;;;;;;11.18;9.68;;;15.50;92.20;;;;;;4994431;28;20121;-79
2021/08/01 00:45:16;;;;;;;12.15;10.90;;;15.40;92.20;;;;;;5007473;28;20134;-79
2021/08/01 00:47:45;;;;;;;11.90;9.73;;;15.40;92.00;;;;;;5010282;28;20264;-80
2021/08/01 00:50:11;;;;;;;16.45;12.35;;;15.30;92.50;;;;;;4997816;28;20040;-78
2021/08/01 00:52:37;;;;;;;10.95;7.70;;;15.20;92.90;;;;;;4993086;28;20553;-79
2021/08/01 00:55:04;;;;;;;16.73;11.43;;;15.20;92.10;;;;;;4992366;28;20116;-79
2021/08/01 00:57:30;;;;;;;6.65;5.95;;;15.20;92.80;;;;;;4991182;28;20417;-79
2021/08/01 00:59:55;;;;;;;8.82;6.45;;;15.30;92.40;;;;;;4981880;28;20048;-79
2021/08/01 01:02:22;;;;;;;8.88;7.78;;;15.30;92.20;;;;;;4995499;28;20025;-79
2021/08/01 01:04:55;;;;;;;9.35;6.55;;;15.30;92.90;;;;;;5001847;28;20065;-79
2021/08/01 01:07:25;;;;;;;6.13;5.25;;;15.20;91.80;;;;;;4993831;28;20099;-80
2021/08/01 01:09:57;;;;;;;6.10;5.40;;;15.20;92.40;;;;;;4997510;28;20056;-79
2021/08/01 01:12:27;;;;;;;6.10;5.50;;;15.20;92.60;;;;;;4995377;28;20037;-80
2021/08/01 01:14:53;;;;;;;11.90;10.13;;;15.20;92.70;;;;;;4995058;28;20032;-80
2021/08/01 01:17:24;;;;;;;6.47;5.88;;;15.20;93.90;;;;;;4993646;28;20120;-79
2021/08/01 01:20:10;;;;;;;6.72;4.85;;;15.00;92.80;;;;;;4988719;28;20040;-79
2021/08/01 01:22:57;;;;;;;10.77;9.68;;;15.10;92.80;;;;;;5024541;28;20112;-79
2021/08/01 01:25:51;;;;;;;6.13;5.40;;;15.10;92.40;;;;;;4992243;28;20037;-79
2021/08/01 01:28:39;;;;;;;9.68;7.20;;;15.00;93.30;;;;;;4991720;28;20103;-80
2021/08/01 01:31:26;;;;;;;11.95;10.70;;;15.10;93.50;;;;;;4991367;28;20060;-79
2021/08/01 01:34:05;;;;;;;9.27;7.32;;;15.20;94.30;;;;;;5001546;28;20025;-79
2021/08/01 01:36:31;;;;;;;14.30;12.38;;;15.10;93.60;;;;;;4989998;28;20036;-79
2021/08/01 01:38:56;;;;;;;12.02;10.70;;;15.20;94.00;;;;;;4993930;28;20034;-78
2021/08/01 01:41:23;;;;;;;10.95;9.45;;;15.10;93.10;;;;;;5006927;28;20493;-78
2021/08/01 01:43:49;;;;;;;12.13;10.82;;;15.20;93.70;;;;;;5010299;28;20037;-78
2021/08/01 01:46:15;;;;;;;7.72;6.55;;;15.10;94.30;;;;;;4993254;28;20034;-79
2021/08/01 01:48:41;;;;;;;7.18;6.47;;;15.20;94.10;;;;;;5008383;28;20095;-78
2021/08/01 01:51:06;;;;;;;12.25;8.60;;;15.30;93.80;;;;;;4996969;28;20116;-80
2021/08/01 01:53:32;;;;;;;6.50;5.90;;;15.30;93.80;;;;;;5001106;28;20040;-79
2021/08/01 01:55:57;;;;;;;7.88;6.70;;;15.20;93.60;;;;;;4995825;28;20034;-78
2021/08/01 01:58:23;;;;;;;7.38;6.68;;;15.20;93.70;;;;;;4991238;28;20507;-78
2021/08/01 02:00:48;;;;;;;8.10;4.90;;;15.30;94.10;;;;;;4992848;28;20663;-78
2021/08/01 02:03:14;;;;;;;8.93;7.95;;;15.40;93.70;;;;;;4988231;28;20033;-78
2021/08/01 02:05:41;;;;;;;6.57;5.53;;;15.50;94.30;;;;;;5007826;28;20033;-79
2021/08/01 02:08:07;;;;;;;8.88;6.53;;;15.50;93.60;;;;;;4993030;28;20034;-78
2021/08/01 02:10:38;;;;;;;11.55;8.43;;;15.40;93.70;;;;;;4992634;28;20035;-79
2021/08/01 02:13:05;;;;;;;14.13;11.00;;;15.40;94.60;;;;;;4993309;28;20033;-79
2021/08/01 02:15:52;;;;;;;8.23;7.18;;;15.30;94.70;;;;;;5001256;28;20463;-79
2021/08/01 02:18:19;;;;;;;11.85;10.05;;;15.20;94.20;;;;;;4988291;28;20045;-79
2021/08/01 02:20:46;;;;;;;13.75;11.30;;;15.30;95.60;;;;;;4990478;28;20497;-80
2021/08/01 02:23:23;;;;;;;11.20;8.95;;;15.30;96.30;;;;;;4997512;28;20029;-80
2021/08/01 02:25:49;;;;;;;7.07;6.30;;;15.20;94.90;;;;;;4997024;28;20033;-80
2021/08/01 02:28:15;;;;;;;6.95;6.25;;;15.30;94.20;;;;;;4995920;28;20041;-80
2021/08/01 02:30:41;;;;;;;8.77;6.95;;;15.40;93.90;;;;;;4985835;28;20048;-79
2021/08/01 02:33:06;;;;;;;7.78;6.00;;;15.40;94.30;;;;;;4993717;28;20436;-79
2021/08/01 02:35:32;;;;;;;5.72;5.20;;;15.50;94.40;;;;;;4991657;28;20037;-79
2021/08/01 02:37:58;;;;;;;14.13;10.95;;;15.60;94.30;;;;;;4993140;28;20030;-79
2021/08/01 02:40:28;;;;;;;8.50;7.38;;;15.60;94.90;;;;;;5004246;28;20050;-79
2021/08/01 02:42:54;;;;;;;8.45;7.10;;;15.60;94.00;;;;;;5008478;28;20071;-79
2021/08/01 02:45:19;;;;;;;13.68;11.52;;;15.40;94.20;;;;;;5005543;28;20025;-79
2021/08/01 02:47:45;;;;;;;9.02;8.13;;;15.40;94.40;;;;;;4995443;28;20052;-78
2021/08/01 02:50:11;;;;;;;12.93;10.40;;;15.30;94.70;;;;;;5009607;28;20072;-79
2021/08/01 02:52:42;;;;;;;6.45;5.85;;;15.30;95.00;;;;;;4990239;28;20033;-79
2021/08/01 02:55:08;;;;;;;13.93;11.45;;;15.40;94.60;;;;;;4995070;28;20414;-79
2021/08/01 02:57:34;;;;;;;12.75;11.20;;;15.40;95.60;;;;;;5010813;28;20037;-79
2021/08/01 03:00:00;;;;;;;12.93;11.00;;;15.40;95.80;;;;;;4990055;28;20120;-79
2021/08/01 03:02:26;;;;;;;12.07;9.73;;;15.40;95.20;;;;;;4991558;28;20037;-79
2021/08/01 03:04:52;;;;;;;7.60;6.82;;;15.30;95.20;;;;;;4991491;28;20041;-79
2021/08/01 03:07:17;;;;;;;11.60;8.90;;;15.30;94.70;;;;;;4995856;28;20036;-79
2021/08/01 03:09:51;;;;;;;8.98;7.38;;;15.30;94.60;;;;;;4992222;28;20033;-79
2021/08/01 03:12:17;;;;;;;7.32;5.63;;;15.30;94.50;;;;;;5004382;28;20026;-79
2021/08/01 03:14:43;;;;;;;7.65;6.32;;;15.30;94.40;;;;;;4990668;28;20033;-78
2021/08/01 03:17:08;;;;;;;12.60;9.30;;;15.40;94.30;;;;;;4990886;28;20115;-79
2021/08/01 03:19:39;;;;;;;6.95;5.15;;;15.40;94.80;;;;;;4993727;28;20041;-79
2021/08/01 03:22:06;;;;;;;10.88;9.70;;;15.30;94.60;;;;;;4996640;28;20025;-79
2021/08/01 03:24:32;;;;;;;15.43;12.25;;;15.20;94.30;;;;;;4996868;28;20028;-79
2021/08/01 03:26:57;;;;;;;9.43;7.05;;;15.20;96.10;;;;;;5010911;28;20034;-79
2021/08/01 03:29:23;;;;;;;9.50;8.07;;;15.20;95.00;;;;;;5003158;28;20030;-79
2021/08/01 03:31:48;;;;;;;12.48;9.95;;;15.30;94.70;;;;;;4993312;28;20034;-79
2021/08/01 03:34:14;;;;;;;14.07;11.38;;;15.30;95.70;;;;;;4990715;28;20029;-79
2021/08/01 03:36:40;;;;;;;10.75;8.00;;;15.20;94.90;;;;;;5006965;28;20021;-79
2021/08/01 03:39:05;;;;;;;17.75;10.68;;;15.20;95.00;;;;;;4992996;28;20363;-79
2021/08/01 03:41:31;;;;;;;9.38;7.03;;;15.30;95.90;;;;;;4998010;28;20037;-79
2021/08/01 03:43:56;;;;;;;10.07;7.85;;;15.20;95.70;;;;;;4993256;28;20132;-79
2021/08/01 03:46:22;;;;;;;14.95;11.27;;;15.20;95.40;;;;;;4990404;28;20034;-79
2021/08/01 03:48:47;;;;;;;9.48;8.48;;;15.20;95.50;;;;;;4991892;28;20160;-78
2021/08/01 03:51:13;;;;;;;15.48;9.80;;;15.20;95.60;;;;;;4995621;28;20057;-79
2021/08/01 03:53:38;;;;;;;10.23;7.32;;;15.20;95.60;;;;;;4991111;28;20045;-79
2021/08/01 03:56:04;;;;;;;7.47;6.20;;;15.30;95.20;;;;;;4989156;28;20044;-80
2021/08/01 03:58:30;;;;;;;16.55;10.93;;;15.30;95.30;;;;;;4978167;28;20057;-80
2021/08/01 04:00:58;;;;;;;11.40;8.25;;;15.20;95.50;;;;;;5005064;28;20414;-79
2021/08/01 04:03:26;;;;;;;16.23;13.30;;;15.30;95.60;;;;;;4992392;28;21403;-78
2021/08/01 04:05:52;;;;;;;11.10;7.88;;;15.20;97.00;;;;;;4976437;28;20033;-79
2021/08/01 04:08:17;;;;;;;10.85;8.75;;;15.20;95.80;;;;;;5023869;28;20036;-79
2021/08/01 04:10:43;;;;;;;9.30;6.75;;;15.10;95.20;;;;;;5007840;28;20108;-79
2021/08/01 04:13:08;;;;;;;10.05;6.32;;;15.20;95.00;;;;;;4998644;28;20033;-79
2021/08/01 04:15:34;;;;;;;9.20;7.05;;;15.20;95.20;;;;;;4993581;28;20049;-79
2021/08/01 04:18:03;;;;;;;14.75;11.48;;;15.30;95.00;;;;;;4987897;28;20057;-79
2021/08/01 04:20:29;;;;;;;7.05;6.03;;;15.30;96.10;;;;;;5023889;28;20041;-79
2021/08/01 04:22:55;;;;;;;9.13;7.10;;;15.30;95.30;;;;;;5006636;28;22727;-78
2021/08/01 04:25:21;;;;;;;8.55;7.68;;;15.40;95.30;;;;;;5006125;28;20037;-78
2021/08/01 04:27:46;;;;;;;9.13;7.47;;;15.50;95.70;;;;;;4997288;28;20355;-78
2021/08/01 04:30:12;;;;;;;8.07;6.18;;;15.60;95.40;;;;;;4983881;28;20044;-78
2021/08/01 04:32:37;;;;;;;7.40;6.53;;;15.60;95.30;;;;;;5007098;28;20033;-78
2021/08/01 04:35:04;;;;;;;9.93;6.63;;;15.60;95.30;;;;;;4991195;28;20091;-78
2021/08/01 04:37:29;;;;;;;11.88;9.57;;;15.50;95.40;;;;;;4992341;28;20052;-79
2021/08/01 04:39:55;;;;;;;10.18;8.02;;;15.60;95.90;;;;;;5006099;28;20556;-79
2021/08/01 04:42:20;;;;;;;8.73;7.15;;;15.60;95.70;;;;;;5015938;28;20116;-79
2021/08/01 04:44:46;;;;;;;10.73;8.05;;;15.70;95.90;;;;;;5006762;28;20156;-78
2021/08/01 04:47:13;;;;;;;9.10;6.32;;;15.70;95.80;;;;;;4993292;28;20092;-78
2021/08/01 04:49:39;;;;;;;11.32;7.47;;;15.70;95.30;;;;;;4997768;28;20029;-79
2021/08/01 04:52:05;;;;;;;9.15;7.65;;;15.80;95.50;;;;;;4994012;28;20508;-80
2021/08/01 04:54:31;;;;;;;7.90;7.10;;;15.60;95.60;;;;;;4999456;28;20021;-79
2021/08/01 04:56:56;;;;;;;9.35;8.07;;;15.60;95.10;;;;;;4990914;28;20034;-79
2021/08/01 04:59:22;;;;;;;9.32;7.97;;;15.60;95.30;;;;;;5007959;28;20033;-79
2021/08/01 05:01:47;;;;;;;16.50;7.25;;;15.50;95.20;;;;;;5003003;28;20044;-79
2021/08/01 05:04:15;;;;;;;7.15;6.32;;;15.50;95.70;;;;;;4993656;28;20057;-79
2021/08/01 05:06:40;;;;;;;8.98;7.70;;;15.50;95.60;;;;;;5007817;28;20041;-80
2021/08/01 05:09:06;;;;;;;8.45;6.82;;;15.50;96.00;;;;;;4995256;28;20033;-79
2021/08/01 05:11:31;;;;;;;6.65;5.93;;;15.50;95.90;;;;;;5012440;28;20108;-79
2021/08/01 05:13:57;;;;;;;8.00;5.85;;;15.50;95.80;;;;;;4990721;28;20108;-80
2021/08/01 05:16:22;;;;;;;16.30;8.50;;;15.70;95.40;;;;;;5008779;28;20029;-79
2021/08/01 05:18:48;;;;;;;7.22;5.85;;;15.80;95.70;;;;;;5011478;28;20022;-79
2021/08/01 05:21:20;;;;;;;13.88;9.55;;;15.70;95.70;;;;;;5001784;28;20036;-80
2021/08/01 05:23:45;;;;;;;9.05;6.95;;;15.80;96.00;;;;;;5007232;28;20037;-79
2021/08/01 05:26:11;;;;;;;13.43;9.32;;;15.80;96.00;;;;;;4996462;28;20041;-79
2021/08/01 05:28:37;;;;;;;8.30;6.10;;;15.80;96.30;;;;;;5003392;28;20029;-78
2021/08/01 05:31:02;;;;;;;11.40;7.25;;;15.80;96.20;;;;;;4993258;28;20091;-77
2021/08/01 05:33:28;;;;;;;14.63;9.82;;;15.80;96.10;;;;;;4992998;28;20087;-79
2021/08/01 05:35:54;;;;;;;8.60;6.43;;;15.90;96.30;;;;;;5009623;28;20029;-77
2021/08/01 05:38:21;;;;;;;9.25;6.05;;;16.00;96.10;;;;;;4993639;28;20037;-78
2021/08/01 05:40:47;;;;;;;11.60;6.22;;;16.10;96.10;;;;;;4993710;28;20037;-78
2021/08/01 05:43:12;;;;;;;8.23;6.47;;;16.20;96.00;;;;;;4992092;28;20512;-78
2021/08/01 05:45:38;;;;;;;11.50;7.88;;;16.20;95.90;;;;;;4998482;28;20033;-78
2021/08/01 05:48:04;;;;;;;10.45;7.82;;;16.20;95.80;;;;;;4996156;28;20057;-78
2021/08/01 05:50:29;;;;;;;14.55;10.10;;;16.30;95.80;;;;;;5023635;28;20048;-78
2021/08/01 05:52:55;;;;;;;13.10;10.48;;;16.40;95.90;;;;;;5008909;28;20033;-78
2021/08/01 05:55:20;;;;;;;12.25;8.20;;;16.40;95.90;;;;;;5018487;28;20053;-78
2021/08/01 05:57:46;;;;;;;13.00;8.02;;;16.50;95.70;;;;;;4994669;28;20037;-78
2021/08/01 06:00:12;;;;;;;10.68;8.75;;;16.40;95.50;;;;;;4991780;28;20045;-77
2021/08/01 06:02:38;;;;;;;13.65;8.73;;;16.40;95.30;;;;;;5021061;28;20040;-79
2021/08/01 06:05:03;;;;;;;12.55;9.15;;;16.40;95.70;;;;;;4992596;28;20057;-77
2021/08/01 06:07:29;;;;;;;10.38;8.18;;;16.40;95.80;;;;;;5005867;28;20084;-78
2021/08/01 06:09:54;;;;;;;17.63;12.45;;;16.50;95.60;;;;;;4998008;28;20281;-78
2021/08/01 06:12:20;;;;;;;13.20;9.77;;;16.50;95.80;;;;;;5004348;28;20025;-79
2021/08/01 06:14:48;;;;;;;17.17;12.85;;;16.60;95.40;;;;;;5000545;28;20032;-78
2021/08/01 06:17:14;;;;;;;15.75;12.35;;;16.60;95.50;;;;;;4992045;28;20512;-78
2021/08/01 06:19:40;;;;;;;12.80;10.38;;;16.70;95.60;;;;;;5009305;28;20076;-78
2021/08/01 06:22:05;;;;;;;14.85;9.98;;;16.70;95.50;;;;;;4995384;28;20025;-79
2021/08/01 06:24:31;;;;;;;14.93;8.73;;;16.70;95.30;;;;;;4994003;28;20036;-78
2021/08/01 06:26:57;;;;;;;25.25;17.45;;;16.70;95.50;;;;;;4995260;28;20022;-78
2021/08/01 06:29:22;;;;;;;14.05;10.43;;;16.80;95.70;;;;;;4974251;28;20040;-78
2021/08/01 06:31:48;;;;;;;16.77;10.95;;;16.80;95.50;;;;;;5009256;28;20021;-78
2021/08/01 06:34:13;;;;;;;17.95;11.38;;;17.10;95.80;;;;;;5003660;28;20061;-78
2021/08/01 06:36:39;;;;;;;14.15;7.85;;;17.10;95.30;;;;;;5024938;28;20018;-77
2021/08/01 06:39:06;;;;;;;13.38;8.93;;;17.10;95.30;;;;;;5008348;28;20025;-77
2021/08/01 06:41:31;;;;;;;18.10;9.80;;;17.20;95.50;;;;;;5006015;28;20132;-78
2021/08/01 06:43:57;;;;;;;14.65;9.43;;;17.30;95.60;;;;;;4993013;28;20105;-78
2021/08/01 06:46:22;;;;;;;9.57;7.72;;;17.60;94.90;;;;;;4997781;28;20033;-78
2021/08/01 06:48:48;;;;;;;15.80;7.93;;;17.90;95.30;;;;;;5007273;28;20034;-79
2021/08/01 06:51:13;;;;;;;11.98;7.38;;;18.10;95.00;;;;;;5006024;28;20084;-77
2021/08/01 06:53:39;;;;;;;9.48;8.18;;;18.40;95.00;;;;;;5005286;28;20040;-79
2021/08/01 06:56:06;;;;;;;10.13;5.93;;;18.60;95.00;;;;;;5009833;28;20437;-78
2021/08/01 06:58:32;;;;;;;11.70;7.22;;;18.70;94.80;;;;;;5008981;28;20037;-79
2021/08/01 07:00:58;;;;;;;8.95;6.80;;;18.70;95.20;;;;;;4989530;28;20037;-79
2021/08/01 07:03:27;;;;;;;11.30;6.45;;;18.90;94.30;;;;;;5009456;28;20442;-78
2021/08/01 07:05:52;;;;;;;6.43;5.45;;;19.10;94.30;;;;;;5007625;28;20057;-79
2021/08/01 07:08:18;;;;;;;9.68;6.55;;;19.30;94.50;;;;;;4998719;28;20506;-79
2021/08/01 07:10:43;;;;;;;10.85;7.25;;;19.20;93.30;;;;;;4997081;28;20036;-78
2021/08/01 07:13:09;;;;;;;11.13;8.43;;;19.30;94.00;;;;;;5011954;28;20401;-79
2021/08/01 07:15:35;;;;;;;10.05;7.32;;;19.30;93.40;;;;;;4993775;28;20033;-78
2021/08/01 07:18:01;;;;;;;11.05;6.93;;;19.20;93.40;;;;;;4990080;28;20033;-80
2021/08/01 07:20:26;;;;;;;12.48;7.22;;;19.50;93.30;;;;;;4992356;28;20033;-79
2021/08/01 07:22:52;;;;;;;10.55;6.88;;;19.60;93.00;;;;;;5007742;28;20030;-80
2021/08/01 07:25:18;;;;;;;10.40;6.10;;;19.90;93.10;;;;;;4991155;28;20038;-78
2021/08/01 07:27:43;;;;;;;9.98;7.57;;;20.10;92.50;;;;;;5007251;28;20108;-79
2021/08/01 07:30:09;;;;;;;11.00;7.10;;;19.90;93.10;;;;;;4988539;28;20056;-80
2021/08/01 07:32:35;;;;;;;9.05;5.97;;;20.00;92.20;;;;;;4995744;28;20030;-79
2021/08/01 07:35:01;;;;;;;8.85;5.72;;;20.10;92.80;;;;;;4989586;28;20117;-79
2021/08/01 07:37:26;;;;;;;8.07;5.45;;;20.10;92.50;;;;;;5007200;28;20034;-79
2021/08/01 07:39:52;;;;;;;10.07;5.75;;;20.30;92.10;;;;;;5006210;28;20029;-79
2021/08/01 07:42:17;;;;;;;10.23;6.82;;;20.70;92.70;;;;;;5019132;28;20034;-79
2021/08/01 07:44:47;;;;;;;8.85;5.07;;;21.00;93.70;;;;;;4997587;28;20029;-79
2021/08/01 07:47:13;;;;;;;10.18;4.95;;;21.20;92.00;;;;;;4998312;28;20029;-79
2021/08/01 07:49:39;;;;;;;12.80;5.50;;;21.10;91.30;;;;;;4994270;28;20036;-77
2021/08/01 07:52:04;;;;;;;7.47;4.78;;;21.20;91.40;;;;;;4991468;28;20021;-79
2021/08/01 07:54:30;;;;;;;4.57;3.58;;;21.20;90.40;;;;;;4994742;28;20083;-80
2021/08/01 07:56:56;;;;;;;10.45;4.95;;;21.00;90.30;;;;;;5007564;28;20516;-79
2021/08/01 07:59:21;;;;;;;7.50;4.07;;;20.80;90.60;;;;;;4992342;28;20103;-79
2021/08/01 08:01:47;;;;;;;11.57;5.25;;;21.20;90.40;;;;;;4991206;28;20486;-78
2021/08/01 08:04:12;;;;;;;11.65;4.75;;;21.50;90.20;;;;;;4994143;28;20350;-79
2021/08/01 08:06:38;;;;;;;12.02;4.82;;;21.90;90.90;;;;;;4995934;28;20036;-80
2021/08/01 08:09:05;;;;;;;7.80;5.28;;;22.50;91.50;;;;;;4996574;28;20038;-79
2021/08/01 08:11:30;;;;;;;5.82;3.53;;;22.80;90.60;;;;;;5010281;28;20503;-79
2021/08/01 08:13:56;;;;;;;6.13;3.50;;;22.80;88.30;;;;;;5008412;28;20116;-81
2021/08/01 08:16:21;;;;;;;9.57;3.35;;;22.30;87.30;;;;;;4996626;28;20143;-79
2021/08/01 08:18:50;;;;;;;5.32;2.22;;;22.60;88.50;;;;;;5008174;28;20401;-80
2021/08/01 08:21:15;;;;;;;5.63;3.55;;;23.00;87.40;;;;;;4991083;28;20044;-80
2021/08/01 08:23:41;;;;;;;5.75;3.28;;;23.30;90.30;;;;;;4996065;28;20029;-79
2021/08/01 08:26:06;;;;;;;8.93;3.50;;;23.50;87.60;;;;;;4994270;28;20030;-80
2021/08/01 08:28:32;;;;;;;8.48;3.47;;;23.50;89.40;;;;;;4992524;28;20103;-80
2021/08/01 08:30:59;;;;;;;3.58;2.10;;;23.80;89.50;;;;;;5008166;28;20026;-80
2021/08/01 08:33:24;;;;;;;8.35;3.40;;;23.70;89.00;;;;;;4990133;28;20065;-79
2021/08/01 08:35:50;;;;;;;6.00;2.92;;;23.40;86.20;;;;;;5010684;28;20103;-80
2021/08/01 08:38:15;;;;;;;6.03;2.65;;;23.20;85.60;;;;;;4990691;28;20041;-80
2021/08/01 08:40:41;;;;;;;6.18;2.50;;;23.20;87.40;;;;;;4998652;28;20103;-80
2021/08/01 08:43:07;;;;;;;4.95;2.17;;;23.50;86.60;;;;;;4994662;28;20030;-79
2021/08/01 08:45:33;;;;;;;3.90;2.25;;;23.60;86.30;;;;;;4999916;28;20117;-80
2021/08/01 08:48:00;;;;;;;6.65;2.88;;;24.10;87.30;;;;;;4995355;28;20033;-80
2021/08/01 08:50:27;;;;;;;5.55;2.95;;;23.90;81.40;;;;;;4995686;28;20033;-80
2021/08/01 08:52:57;;;;;;;7.18;3.03;;;23.80;83.30;;;;;;4998955;28;20339;-80
2021/08/01 08:55:24;;;;;;;5.32;2.60;;;24.50;86.30;;;;;;4994106;28;20034;-80
2021/08/01 08:57:53;;;;;;;4.20;2.72;;;25.10;86.60;;;;;;4997400;28;20423;-81
2021/08/01 09:00:19;;;;;;;6.40;2.85;;;25.10;84.90;;;;;;5000370;28;20067;-81
2021/08/01 09:02:44;;;;;;;4.70;2.15;;;25.50;85.00;;;;;;4998518;28;20057;-82
2021/08/01 09:05:10;;;;;;;6.85;2.47;;;25.50;81.00;;;;;;4995348;28;20055;-82
2021/08/01 09:07:38;;;;;;;6.35;2.75;;;25.30;81.50;;;;;;5002836;28;20593;-81
2021/08/01 09:10:04;;;;;;;6.07;2.67;;;25.50;81.50;;;;;;4995672;28;20492;-82
2021/08/01 09:12:30;;;;;;;7.32;2.60;;;25.40;77.40;;;;;;5000165;28;20481;-83
2021/08/01 09:15:20;;;;;;;7.57;2.50;;;25.50;81.10;;;;;;5005851;28;20052;-83
2021/08/01 09:17:46;;;;;;;4.85;2.75;;;25.70;76.00;;;;;;5014819;28;20026;-81
2021/08/01 09:20:13;;;;;;;6.32;2.30;;;26.00;78.80;;;;;;4997582;28;20125;-82
2021/08/01 09:22:38;;;;;;;9.23;2.60;;;25.80;79.60;;;;;;5014400;28;20147;-81
2021/08/01 09:25:17;;;;;;;3.42;2.35;;;25.90;76.20;;;;;;4999879;28;20022;-82
2021/08/01 09:27:43;;;;;;;9.55;2.90;;;25.90;76.90;;;;;;5019437;28;20034;-81
2021/08/01 09:30:09;;;;;;;4.38;2.10;;;26.00;77.10;;;;;;4992831;28;20459;-81
2021/08/01 09:32:46;;;;;;;4.25;2.70;;;26.10;77.40;;;;;;4995541;28;20090;-83
2021/08/01 09:35:20;;;;;;;7.40;2.95;;;25.70;72.40;;;;;;4994989;28;20033;-81
2021/08/01 09:37:58;;;;;;;5.03;2.15;;;25.70;75.10;;;;;;5009017;28;20029;-81
2021/08/01 09:40:28;;;;;;;4.40;2.03;;;26.00;75.40;;;;;;5007724;28;20049;-81
2021/08/01 09:42:54;;;;;;;4.72;2.20;;;25.90;74.20;;;;;;5006838;28;20029;-81
2021/08/01 09:45:20;;;;;;;5.82;2.28;;;25.90;74.90;;;;;;4999712;28;20074;-81
2021/08/01 09:47:47;;;;;;;4.45;2.40;;;25.90;76.10;;;;;;4992238;28;20109;-80
2021/08/01 09:50:14;;;;;;;7.32;3.22;;;26.30;73.10;;;;;;4991512;28;20493;-80
2021/08/01 09:52:41;;;;;;;6.13;2.60;;;26.40;76.10;;;;;;5007843;28;20030;-79
2021/08/01 09:55:18;;;;;;;7.25;3.03;;;26.20;71.80;;;;;;4996053;28;20583;-80
2021/08/01 09:57:53;;;;;;;3.38;2.15;;;26.20;73.50;;;;;;4993574;28;20026;-79
2021/08/01 10:00:19;;;;;;;4.80;2.08;;;26.20;71.10;;;;;;4977381;28;20037;-79
2021/08/01 10:02:45;;;;;;;6.80;2.60;;;26.10;70.30;;;;;;5009004;28;20038;-80
2021/08/01 10:05:14;;;;;;;4.25;2.50;;;26.20;71.50;;;;;;5009257;28;20505;-81
2021/08/01 10:07:42;;;;;;;3.35;2.25;;;26.20;70.60;;;;;;4997556;28;20026;-79
2021/08/01 10:10:18;;;;;;;5.90;3.00;;;26.30;71.10;;;;;;5009666;28;20398;-80
2021/08/01 10:12:45;;;;;;;7.90;2.67;;;26.20;69.60;;;;;;5015587;28;20176;-80
2021/08/01 10:15:10;;;;;;;5.85;2.65;;;25.70;69.30;;;;;;4992255;28;20037;-78
2021/08/01 10:17:36;;;;;;;4.80;2.80;;;25.90;72.10;;;;;;5024817;28;20029;-79
2021/08/01 10:20:02;;;;;;;3.33;2.50;;;26.00;70.90;;;;;;4992390;28;20044;-79
2021/08/01 10:22:27;;;;;;;4.35;2.20;;;26.20;68.20;;;;;;5008595;28;20025;-79
2021/08/01 10:24:56;;;;;;;4.88;3.38;;;26.50;68.70;;;;;;5005458;28;20025;-79
2021/08/01 10:27:21;;;;;;;3.78;1.92;;;26.40;68.70;;;;;;4988607;28;20108;-79
2021/08/01 10:29:53;;;;;;;6.05;2.45;;;26.50;67.50;;;;;;5010843;28;20470;-79
2021/08/01 10:32:24;;;;;;;4.72;2.42;;;26.60;68.20;;;;;;4990104;28;20026;-79
2021/08/01 10:35:07;;;;;;;4.30;2.72;;;26.70;68.50;;;;;;4991921;28;20446;-79
2021/08/01 10:37:39;;;;;;;2.90;1.67;;;26.90;66.90;;;;;;4992227;28;20035;-78
2021/08/01 10:40:06;;;;;;;5.93;1.85;;;26.90;67.00;;;;;;4995499;28;20026;-79
2021/08/01 10:42:33;;;;;;;5.25;2.40;;;27.10;66.50;;;;;;5004448;28;20501;-78
2021/08/01 10:44:58;;;;;;;4.25;2.05;;;27.20;65.70;;;;;;4991950;28;20026;-78
2021/08/01 10:47:24;;;;;;;3.38;1.73;;;26.90;64.30;;;;;;4992062;28;20233;-78
2021/08/01 10:49:49;;;;;;;3.53;1.83;;;26.90;65.40;;;;;;4992807;28;20118;-78
2021/08/01 10:52:18;;;;;;;3.83;2.13;;;27.20;65.90;;;;;;5008153;28;20385;-79
2021/08/01 10:54:57;;;;;;;4.75;2.45;;;27.40;65.00;;;;;;5008036;28;20029;-78
2021/08/01 10:57:23;;;;;;;3.78;2.40;;;27.40;64.60;;;;;;4990892;28;20021;-78
2021/08/01 10:59:49;;;;;;;9.23;2.40;;;27.30;64.90;;;;;;4997819;28;20030;-78
2021/08/01 11:02:18;;;;;;;2.90;1.88;;;27.20;65.50;;;;;;5011587;28;20036;-78
2021/08/01 11:04:46;;;;;;;2.45;2.08;;;27.40;66.00;;;;;;4300107;28;10000480;-77
2021/08/01 11:07:12;;;;;;;2.60;2.00;;;27.50;64.20;;;;;;4993726;28;20501;-78
2021/08/01 11:09:37;;;;;;;2.63;1.60;;;27.30;63.70;;;;;;4988716;28;20033;-77
2021/08/01 11:12:28;;;;;;;3.72;1.73;;;27.60;62.80;;;;;;4990817;28;20033;-77
2021/08/01 11:14:54;;;;;;;3.53;2.22;;;27.90;64.50;;;;;;4998770;28;20018;-78
2021/08/01 11:17:22;;;;;;;3.25;1.85;;;28.00;63.20;;;;;;5021176;28;20032;-77
2021/08/01 11:19:47;;;;;;;5.15;1.80;;;28.10;62.70;;;;;;5006004;28;20025;-78
2021/08/01 11:22:41;;;;;;;4.40;1.83;;;28.40;61.80;;;;;;4989712;28;20040;-77
2021/08/01 11:25:25;;;;;;;5.93;2.00;;;28.60;62.80;;;;;;5012378;28;20036;-78
2021/08/01 11:28:10;;;;;;;2.97;1.90;;;28.70;62.50;;;;;;5019251;28;20566;-78
2021/08/01 11:30:53;;;;;;;4.15;1.92;;;28.70;60.80;;;;;;5021400;28;20497;-79
2021/08/01 11:33:38;;;;;;;2.83;1.92;;;28.40;60.40;;;;;;5022496;28;20030;-78
2021/08/01 11:36:10;;;;;;;5.20;1.77;;;28.60;60.40;;;;;;5006751;28;20496;-78
2021/08/01 11:38:39;;;;;;;3.97;1.88;;;28.50;59.80;;;;;;5018660;28;20025;-79
2021/08/01 11:41:05;;;;;;;3.25;2.08;;;27.90;59.40;;;;;;4987951;28;20071;-77
2021/08/01 11:43:30;;;;;;;3.63;1.98;;;28.00;59.80;;;;;;4990481;28;20061;-77
2021/08/01 11:46:03;;;;;;;5.25;1.98;;;28.40;61.00;;;;;;5003365;28;20067;-78
2021/08/01 11:48:29;;;;;;;4.10;2.03;;;28.60;60.90;;;;;;5003122;28;20060;-78
2021/08/01 11:50:56;;;;;;;1.33;1.20;;;28.90;60.30;;;;;;4987975;28;20048;-77
2021/08/01 11:53:22;;;;;;;4.32;2.55;;;28.80;59.40;;;;;;4983857;28;20037;-78
2021/08/01 11:55:48;;;;;;;4.63;2.03;;;29.00;59.80;;;;;;5000752;28;20541;-78
2021/08/01 11:58:13;;;;;;;3.03;2.55;;;29.00;59.50;;;;;;4989305;28;20091;-78
2021/08/01 12:00:39;;;;;;;4.88;2.05;;;29.10;59.40;;;;;;4990946;28;20053;-77
2021/08/01 12:03:04;;;;;;;2.95;2.05;;;28.80;57.60;;;;;;4982367;28;20034;-78
2021/08/01 12:05:43;;;;;;;5.30;2.22;;;29.20;60.50;;;;;;5003751;28;20029;-78
2021/08/01 12:08:08;;;;;;;5.38;2.10;;;29.10;57.50;;;;;;4989195;28;20069;-77
2021/08/01 12:10:35;;;;;;;3.92;2.55;;;29.00;58.50;;;;;;4995160;28;20132;-77
2021/08/01 12:13:08;;;;;;;2.80;2.13;;;29.30;58.40;;;;;;4993696;28;20041;-78
2021/08/01 12:15:36;;;;;;;3.10;2.10;;;29.30;57.70;;;;;;5004499;28;20038;-78
2021/08/01 12:18:02;;;;;;;3.97;1.80;;;29.40;58.40;;;;;;4993680;28;20618;-76
2021/08/01 12:20:32;;;;;;;3.00;1.77;;;29.50;57.80;;;;;;4998537;28;20443;-78
2021/08/01 12:22:58;;;;;;;3.38;2.30;;;29.50;57.70;;;;;;4995057;28;20029;-78
2021/08/01 12:25:23;;;;;;;2.50;2.25;;;29.20;56.30;;;;;;4994061;28;20096;-79
2021/08/01 12:27:49;;;;;;;3.35;1.95;;;29.60;58.60;;;;;;4992057;28;20391;-79
2021/08/01 12:30:19;;;;;;;3.90;2.17;;;29.90;56.20;;;;;;5005587;28;20056;-77
2021/08/01 12:32:49;;;;;;;3.20;2.40;;;29.90;58.10;;;;;;5008255;28;20160;-79
2021/08/01 12:35:19;;;;;;;5.35;3.28;;;30.20;57.60;;;;;;5012275;28;20060;-79
2021/08/01 12:37:49;;;;;;;4.03;3.10;;;30.20;57.50;;;;;;4994104;28;20073;-79
2021/08/01 12:40:42;;;;;;;4.25;2.45;;;30.30;56.40;;;;;;4993323;28;20397;-76
2021/08/01 12:43:13;;;;;;;3.22;2.83;;;30.20;55.10;;;;;;5008980;28;20432;-77
2021/08/01 12:45:43;;;;;;;3.78;2.42;;;30.50;56.20;;;;;;4997857;28;20102;-79